»·PEaware :: N82SB 11CL-46CA

N82SB :: 11CL-46CA

FLIGHT INFORMATION

Flight Status: Arrived
Operator: Privately registered:
United States
More flights under this callsign
Pilot: Robert L. (6895)
Aircraft: BEECH AIRCRAFT BARON
(BE58)
More flights by this aircraft type
Origin: 11CL Hansen
United States
Destination: 46CA Rancho Vallecito
United States
More flights between these airports :: More routes between these airports
Route:
File this flight plan on PilotEdge
Remarks:
Altitude:
(Current/Filed)
11,500ft
Speed:
(Current/Filed)
160kts
Departed: 17-May-15 06:04 PM
Arrived: 17-May-15 06:53 PM
Distance/Time
Traveled:
117nm/0:49
Distance/Time
To Go:
Arrived

Flight Plot

Page will automatically refresh every two minutes.


Map Options




Map Legend


Flown Route
Filed Route
Departure Airport
Arrival Airport
Navaid (VOR, NDB)
Fix

Horizontal Profiles

Position Reports

Time Latitude Longitude Heading Altitude Ground
Speed
17-May-15 17:56 34.629080 -117.657600 341 2888ft 0kts
17-May-15 17:57 34.629464 -117.657755 344 2888ft 0kts
17-May-15 17:58 34.629968 -117.653564 83 2888ft 28kts
17-May-15 17:59 34.630793 -117.643597 109 2888ft 0kts
17-May-15 18:00 34.630836 -117.643526 253 2888ft 0kts
17-May-15 18:01 34.631381 -117.665921 260 3573ft 94kts
17-May-15 18:02 34.618505 -117.683569 154 4575ft 124kts
17-May-15 18:03 34.589866 -117.653932 149 5568ft 138kts
17-May-15 18:04 34.562484 -117.624930 148 6840ft 121kts
17-May-15 18:05 34.540605 -117.600569 149 8122ft 96kts
17-May-15 18:06 34.521721 -117.578183 149 9069ft 95kts
17-May-15 18:07 34.501931 -117.554411 149 9849ft 105kts
17-May-15 18:08 34.480352 -117.528730 149 10627ft 112kts
17-May-15 18:09 34.458134 -117.502019 149 11392ft 114kts
17-May-15 18:10 34.433292 -117.473625 148 11522ft 152kts
17-May-15 18:11 34.398889 -117.437379 149 11516ft 174kts
17-May-15 18:12 34.359885 -117.401869 179 11502ft 170kts
17-May-15 18:13 34.314055 -117.412460 197 11518ft 172kts
17-May-15 18:14 34.266607 -117.425863 198 11521ft 179kts
17-May-15 18:15 34.217551 -117.440384 198 11524ft 185kts
17-May-15 18:16 34.167498 -117.455337 198 11524ft 188kts
17-May-15 18:17 34.116659 -117.470604 198 11524ft 190kts
17-May-15 18:18 34.066041 -117.485640 198 11525ft 190kts
17-May-15 18:19 34.022839 -117.498471 198 11499ft 194kts
17-May-15 18:20 33.971169 -117.519583 198 11490ft 199kts
17-May-15 18:21 33.927586 -117.537424 198 11490ft 200kts
17-May-15 18:22 33.879524 -117.497182 125 11490ft 199kts
17-May-15 18:23 33.845030 -117.445552 131 11490ft 200kts
17-May-15 18:24 33.817723 -117.401246 106 11492ft 198kts
17-May-15 18:25 33.803623 -117.337363 136 11455ft 200kts
17-May-15 18:26 33.755684 -117.304620 154 11460ft 200kts
17-May-15 18:27 33.709514 -117.268364 141 11460ft 200kts
17-May-15 18:28 33.660314 -117.251165 133 11460ft 198kts
17-May-15 18:29 33.625572 -117.199565 128 11460ft 200kts
17-May-15 18:30 33.593222 -117.146147 125 11533ft 195kts
17-May-15 18:31 33.560486 -117.092686 134 11458ft 200kts
17-May-15 18:32 33.529823 -117.044486 111 11456ft 173kts
17-May-15 18:33 33.512104 -116.990405 111 11464ft 184kts
17-May-15 18:34 33.482184 -116.940503 142 11462ft 195kts
17-May-15 18:35 33.443546 -116.903451 140 11460ft 199kts
17-May-15 18:36 33.401452 -116.860744 138 11410ft 201kts
17-May-15 18:37 33.360044 -116.817014 138 11409ft 201kts
17-May-15 18:38 33.318367 -116.773059 138 11410ft 201kts
17-May-15 18:39 33.276550 -116.729016 138 11410ft 201kts
17-May-15 18:40 33.234726 -116.685015 138 11410ft 201kts
17-May-15 18:41 33.192202 -116.640365 138 10994ft 218kts
17-May-15 18:42 33.151073 -116.584074 126 9749ft 235kts
17-May-15 18:43 33.114345 -116.523807 121 8135ft 204kts
17-May-15 18:44 33.088419 -116.468499 115 6241ft 187kts
17-May-15 18:45 33.057489 -116.422869 159 5532ft 166kts
17-May-15 18:46 33.011406 -116.426179 199 5721ft 175kts
17-May-15 18:47 32.975399 -116.401319 94 3118ft 197kts
17-May-15 18:48 32.963886 -116.364596 226 2124ft 102kts
17-May-15 18:49 32.965987 -116.396546 298 1775ft 90kts
17-May-15 18:50 32.971759 -116.412088 189 1683ft 0kts

Navigation Log

Ident Type
Flight plan parsing failed, navigation log unavailable